Time;durP1;ratioP1;P1;durP2;ratioP2;P2;SDS_P1;SDS_P2;PMS_P1;PMS_P2;Temp;Humidity;BMP_temperature;BMP_pressure;BME280_temperature;BME280_humidity;BME280_pressure;Samples;Min_cycle;Max_cycle;Signal;HPM_P1;HPM_P2
2024/02/25 00:00:37;;;;;;;2.30;1.60;;;3.30;99.90;;;;;;5040716;28;20398;-84
2024/02/25 00:03:02;;;;;;;2.67;1.30;;;3.30;99.90;;;;;;5038141;28;20407;-83
2024/02/25 00:05:29;;;;;;;1.80;1.30;;;3.20;99.90;;;;;;5046859;28;20401;-83
2024/02/25 00:07:54;;;;;;;2.50;1.35;;;3.20;99.90;;;;;;5055443;28;20397;-83
2024/02/25 00:10:20;;;;;;;3.00;1.40;;;3.20;99.90;;;;;;5046929;28;20483;-83
2024/02/25 00:12:45;;;;;;;1.80;1.40;;;3.20;99.90;;;;;;5044971;28;20484;-83
2024/02/25 00:15:11;;;;;;;3.40;1.75;;;3.40;99.90;;;;;;5055082;28;20390;-83
2024/02/25 00:17:36;;;;;;;2.00;1.60;;;3.30;99.90;;;;;;5055619;28;20761;-84
2024/02/25 00:20:03;;;;;;;1.70;1.50;;;3.30;99.90;;;;;;5055665;28;20389;-83
2024/02/25 00:22:29;;;;;;;1.50;1.40;;;3.30;99.90;;;;;;5051944;28;20473;-83
2024/02/25 00:24:54;;;;;;;1.70;1.60;;;3.30;99.90;;;;;;5050667;28;20399;-83
2024/02/25 00:27:20;;;;;;;1.40;1.30;;;3.30;99.90;;;;;;5042926;28;20432;-83
2024/02/25 00:29:45;;;;;;;1.60;1.50;;;3.30;99.90;;;;;;5047672;28;21135;-83
2024/02/25 00:32:12;;;;;;;2.30;1.50;;;3.20;99.90;;;;;;5054062;28;20405;-84
2024/02/25 00:34:37;;;;;;;2.55;1.60;;;3.20;99.90;;;;;;5054040;28;20976;-82
2024/02/25 00:37:03;;;;;;;1.80;1.70;;;3.20;99.90;;;;;;5054247;28;20488;-82
2024/02/25 00:39:28;;;;;;;1.48;1.38;;;3.30;99.90;;;;;;5039753;28;20399;-82
2024/02/25 00:41:57;;;;;;;1.73;1.63;;;3.20;99.90;;;;;;5036668;28;20467;-82
2024/02/25 00:44:23;;;;;;;1.60;1.48;;;3.30;99.90;;;;;;5035592;28;20403;-82
2024/02/25 00:46:48;;;;;;;2.20;1.50;;;3.30;99.90;;;;;;5042045;28;20404;-83
2024/02/25 00:49:14;;;;;;;2.30;1.73;;;3.30;99.90;;;;;;5047633;28;20403;-84
2024/02/25 00:51:39;;;;;;;1.60;1.50;;;3.20;99.90;;;;;;5037466;28;20383;-83
2024/02/25 00:54:05;;;;;;;2.50;1.52;;;3.30;99.90;;;;;;5052357;28;20489;-84
2024/02/25 00:56:31;;;;;;;2.13;1.40;;;3.20;99.90;;;;;;5042230;28;20407;-84
2024/02/25 00:58:56;;;;;;;1.80;1.70;;;3.20;99.90;;;;;;5039755;28;20483;-82
2024/02/25 01:01:22;;;;;;;2.25;1.50;;;3.20;99.90;;;;;;5036706;28;20383;-83
2024/02/25 01:03:47;;;;;;;1.98;1.42;;;3.30;99.90;;;;;;5036285;28;20403;-83
2024/02/25 01:06:13;;;;;;;1.60;1.50;;;3.30;99.90;;;;;;5037315;28;20453;-83
2024/02/25 01:08:42;;;;;;;1.90;1.20;;;3.30;99.90;;;;;;5034881;28;20395;-83
2024/02/25 01:11:08;;;;;;;1.65;1.40;;;3.40;99.90;;;;;;5033781;28;20422;-83
2024/02/25 01:13:34;;;;;;;1.33;1.23;;;3.40;99.90;;;;;;5037027;28;20406;-83
2024/02/25 01:16:03;;;;;;;1.70;1.60;;;3.50;99.90;;;;;;5037328;28;20399;-83
2024/02/25 01:18:32;;;;;;;1.90;1.40;;;3.60;99.90;;;;;;5037281;28;20395;-83
2024/02/25 01:20:58;;;;;;;2.00;1.60;;;3.50;99.90;;;;;;5038484;28;20399;-83
2024/02/25 01:23:24;;;;;;;1.85;1.30;;;3.40;99.90;;;;;;5039706;28;20759;-83
2024/02/25 01:25:50;;;;;;;1.52;1.17;;;3.50;99.90;;;;;;5047719;28;20411;-83
2024/02/25 01:28:16;;;;;;;1.70;1.50;;;3.50;99.90;;;;;;5051324;28;20401;-84
2024/02/25 01:30:41;;;;;;;1.50;1.40;;;3.50;99.90;;;;;;5043148;28;20403;-84
2024/02/25 01:33:08;;;;;;;1.50;1.40;;;3.30;99.90;;;;;;5035223;28;20403;-83
2024/02/25 01:35:34;;;;;;;1.73;1.60;;;3.40;99.90;;;;;;5035642;28;20399;-83
2024/02/25 01:37:59;;;;;;;1.30;1.20;;;3.40;99.90;;;;;;5035540;28;20913;-83
2024/02/25 01:40:25;;;;;;;1.90;1.20;;;3.30;99.90;;;;;;5035708;28;20402;-83
2024/02/25 01:43:09;;;;;;;1.50;1.40;;;3.40;99.90;;;;;;5034107;28;20406;-83
2024/02/25 01:45:35;;;;;;;1.80;1.50;;;3.40;99.90;;;;;;5034830;28;20894;-83
2024/02/25 01:48:03;;;;;;;1.75;1.38;;;3.50;99.90;;;;;;5035306;28;20402;-83
2024/02/25 01:50:28;;;;;;;1.50;1.37;;;3.50;99.90;;;;;;5036314;28;20755;-83
2024/02/25 01:52:55;;;;;;;1.60;1.50;;;3.40;99.90;;;;;;5034829;28;20387;-84
2024/02/25 01:55:24;;;;;;;3.20;1.17;;;3.40;99.90;;;;;;5034200;28;20453;-82
2024/02/25 01:57:52;;;;;;;2.00;1.77;;;3.40;99.90;;;;;;5071884;22;20436;-81
2024/02/25 02:00:18;;;;;;;1.35;1.25;;;3.40;99.90;;;;;;5092320;28;20385;-82
2024/02/25 02:02:44;;;;;;;1.88;1.60;;;3.50;99.90;;;;;;5083795;28;20384;-82
2024/02/25 02:05:10;;;;;;;1.70;1.53;;;3.50;99.90;;;;;;5081456;28;20384;-81
2024/02/25 02:07:38;;;;;;;2.50;1.77;;;3.50;99.90;;;;;;5077558;28;20391;-82
2024/02/25 02:10:10;;;;;;;2.47;1.60;;;3.60;99.90;;;;;;5084166;28;20440;-82
2024/02/25 02:12:46;;;;;;;2.10;1.90;;;3.60;99.90;;;;;;5084651;28;20422;-81
2024/02/25 02:15:13;;;;;;;1.65;1.33;;;3.70;99.90;;;;;;5084130;28;20395;-82
2024/02/25 02:17:40;;;;;;;1.98;1.70;;;3.80;99.90;;;;;;5084863;28;20404;-82
2024/02/25 02:20:18;;;;;;;2.83;1.90;;;3.70;99.90;;;;;;5085702;28;20386;-82
2024/02/25 02:22:44;;;;;;;1.60;1.50;;;3.60;99.90;;;;;;5084995;28;20415;-84
2024/02/25 02:25:11;;;;;;;2.10;1.70;;;3.50;99.90;;;;;;5085358;28;20591;-82
2024/02/25 02:27:37;;;;;;;1.63;1.42;;;3.90;99.90;;;;;;5081819;28;20415;-82
2024/02/25 02:30:04;;;;;;;1.90;1.70;;;3.40;99.90;;;;;;5072564;28;20423;-82
2024/02/25 02:32:29;;;;;;;2.50;1.45;;;3.60;99.90;;;;;;5083739;28;20376;-82
2024/02/25 02:34:55;;;;;;;2.10;1.40;;;3.50;99.90;;;;;;5082960;28;20425;-82
2024/02/25 02:37:21;;;;;;;1.60;1.40;;;3.50;99.90;;;;;;5079797;28;20409;-82
2024/02/25 02:39:46;;;;;;;2.20;1.50;;;3.50;99.90;;;;;;5079889;28;20384;-82
2024/02/25 02:42:12;;;;;;;1.57;1.47;;;3.60;99.90;;;;;;5091522;28;20386;-82
2024/02/25 02:44:38;;;;;;;1.67;1.40;;;3.70;99.90;;;;;;5089115;28;20453;-82
2024/02/25 02:47:04;;;;;;;2.40;1.30;;;3.60;99.90;;;;;;5082068;28;20867;-81
2024/02/25 02:49:29;;;;;;;2.05;1.40;;;3.60;99.90;;;;;;5081788;28;20388;-82
2024/02/25 02:51:59;;;;;;;1.30;1.20;;;3.60;99.90;;;;;;5080512;28;20395;-82
2024/02/25 02:54:25;;;;;;;2.00;1.20;;;3.70;99.90;;;;;;5081542;28;20465;-83
2024/02/25 02:56:51;;;;;;;2.00;1.35;;;3.90;99.90;;;;;;5082458;28;20395;-82
2024/02/25 02:59:16;;;;;;;1.30;1.10;;;4.00;99.90;;;;;;5083419;28;20783;-82
2024/02/25 03:01:48;;;;;;;1.50;1.40;;;3.90;99.90;;;;;;5079954;28;20506;-82
2024/02/25 03:04:14;;;;;;;1.20;1.07;;;3.90;99.90;;;;;;5081785;28;20538;-82
2024/02/25 03:06:39;;;;;;;1.37;1.10;;;3.90;99.90;;;;;;5083064;28;20762;-82
2024/02/25 03:09:05;;;;;;;1.37;0.70;;;4.00;99.90;;;;;;5078467;28;20388;-82
2024/02/25 03:11:30;;;;;;;1.40;0.80;;;4.30;99.90;;;;;;5080275;28;20395;-82
2024/02/25 03:13:56;;;;;;;0.83;0.80;;;4.50;99.90;;;;;;5082103;28;20406;-81
2024/02/25 03:16:21;;;;;;;1.52;0.90;;;4.50;99.90;;;;;;5081763;28;20384;-82
2024/02/25 03:18:47;;;;;;;1.20;1.00;;;4.90;99.90;;;;;;5082101;28;20491;-82
2024/02/25 03:21:12;;;;;;;1.30;1.10;;;4.60;99.90;;;;;;5082824;28;20910;-82
2024/02/25 03:23:38;;;;;;;0.80;0.60;;;4.40;99.90;;;;;;5080964;28;20388;-82
2024/02/25 03:26:04;;;;;;;1.83;0.90;;;4.60;99.90;;;;;;5081748;28;20388;-82
2024/02/25 03:28:29;;;;;;;1.15;0.55;;;5.00;99.90;;;;;;5079450;28;21029;-82
2024/02/25 03:30:55;;;;;;;0.50;0.50;;;5.30;99.90;;;;;;5085646;28;20416;-82
2024/02/25 03:33:20;;;;;;;0.98;0.50;;;5.30;99.90;;;;;;5080290;28;20390;-82
2024/02/25 03:35:46;;;;;;;1.17;0.93;;;5.80;99.90;;;;;;5086203;28;20404;-81
2024/02/25 03:38:12;;;;;;;1.80;0.90;;;5.60;99.90;;;;;;5087256;28;20420;-82
2024/02/25 03:40:37;;;;;;;0.80;0.77;;;5.20;99.90;;;;;;5088678;28;20393;-82
2024/02/25 03:43:03;;;;;;;1.10;0.80;;;4.80;99.90;;;;;;5090027;28;20415;-82
2024/02/25 03:45:28;;;;;;;0.82;0.70;;;4.60;99.90;;;;;;5081554;28;20392;-83
2024/02/25 03:47:54;;;;;;;1.17;0.90;;;4.40;99.90;;;;;;5082793;28;20376;-82
2024/02/25 03:50:19;;;;;;;1.60;1.50;;;4.30;99.90;;;;;;5080699;28;20474;-83
2024/02/25 03:52:45;;;;;;;2.00;0.90;;;4.20;99.90;;;;;;5083602;28;20515;-83
2024/02/25 03:55:10;;;;;;;1.43;1.30;;;4.20;99.90;;;;;;5085618;28;20467;-82
2024/02/25 03:57:38;;;;;;;1.67;1.52;;;4.10;99.90;;;;;;5084647;28;20418;-82
2024/02/25 04:00:05;;;;;;;1.30;0.90;;;4.10;99.90;;;;;;5084830;28;20383;-82
2024/02/25 04:02:31;;;;;;;1.50;1.10;;;4.10;99.90;;;;;;5083411;28;20375;-82
2024/02/25 04:04:56;;;;;;;1.50;1.10;;;4.10;99.90;;;;;;5084877;28;20500;-82
2024/02/25 04:07:22;;;;;;;1.10;1.00;;;4.00;99.90;;;;;;5083820;28;20384;-83
2024/02/25 04:09:47;;;;;;;1.02;0.90;;;3.80;99.90;;;;;;5085275;28;20383;-83
2024/02/25 04:12:13;;;;;;;1.20;1.10;;;3.90;99.90;;;;;;5071006;28;20401;-83
2024/02/25 04:14:38;;;;;;;1.10;1.00;;;3.90;99.90;;;;;;5070481;28;20388;-83
2024/02/25 04:17:04;;;;;;;1.47;1.00;;;3.90;99.90;;;;;;5086289;28;20435;-82
2024/02/25 04:19:29;;;;;;;1.30;0.90;;;3.90;99.90;;;;;;5086156;28;20387;-83
2024/02/25 04:21:55;;;;;;;1.10;0.90;;;3.80;99.90;;;;;;5085565;28;20388;-82
2024/02/25 04:24:20;;;;;;;1.50;0.90;;;3.80;99.90;;;;;;5085344;28;20392;-83
2024/02/25 04:26:48;;;;;;;1.40;1.30;;;3.70;99.90;;;;;;5069641;28;20397;-83
2024/02/25 04:29:14;;;;;;;1.30;1.20;;;3.60;99.90;;;;;;5072530;28;20401;-83
2024/02/25 04:31:45;;;;;;;1.50;1.20;;;3.60;99.90;;;;;;5104813;28;20402;-83
2024/02/25 04:34:12;;;;;;;1.20;1.10;;;3.60;99.90;;;;;;5088926;28;20771;-83
2024/02/25 04:36:38;;;;;;;1.50;1.10;;;3.60;99.90;;;;;;5087130;28;20427;-81
2024/02/25 04:39:05;;;;;;;1.20;1.10;;;3.50;99.90;;;;;;5087511;28;20756;-82
2024/02/25 04:41:30;;;;;;;1.83;1.50;;;3.40;99.90;;;;;;5087058;28;20413;-81
2024/02/25 04:43:56;;;;;;;1.90;1.10;;;3.40;99.90;;;;;;5086259;28;20375;-82
2024/02/25 04:46:22;;;;;;;2.00;1.02;;;3.50;99.90;;;;;;5094704;28;20400;-80
2024/02/25 04:48:49;;;;;;;1.58;1.00;;;3.50;99.90;;;;;;5090511;28;20419;-81
2024/02/25 04:51:15;;;;;;;1.20;1.00;;;3.50;99.90;;;;;;5082466;28;20395;-81
2024/02/25 04:53:40;;;;;;;2.33;0.90;;;3.50;99.90;;;;;;5082489;28;20391;-81
2024/02/25 04:56:06;;;;;;;1.07;0.97;;;3.60;99.90;;;;;;5082010;28;20392;-81
2024/02/25 04:58:32;;;;;;;0.88;0.88;;;3.60;99.90;;;;;;5082097;28;20479;-82
2024/02/25 05:00:58;;;;;;;0.80;0.80;;;3.60;99.90;;;;;;5082583;28;20415;-81
2024/02/25 05:03:23;;;;;;;1.00;0.90;;;3.70;99.90;;;;;;5082148;28;20383;-82
2024/02/25 05:05:50;;;;;;;2.22;1.00;;;3.60;99.90;;;;;;5081402;28;20434;-80
2024/02/25 05:08:16;;;;;;;2.00;1.27;;;3.70;99.90;;;;;;5084634;28;20396;-82
2024/02/25 05:10:41;;;;;;;2.58;1.17;;;3.70;99.90;;;;;;5094707;28;20401;-82
2024/02/25 05:13:07;;;;;;;2.42;1.02;;;3.80;99.90;;;;;;5103388;28;20396;-81
2024/02/25 05:15:33;;;;;;;1.10;1.00;;;3.80;99.90;;;;;;5100783;28;20827;-81
2024/02/25 05:17:59;;;;;;;1.10;0.90;;;4.00;99.90;;;;;;5091794;28;20450;-81
2024/02/25 05:20:26;;;;;;;1.48;1.10;;;4.00;99.90;;;;;;5078253;28;20417;-81
2024/02/25 05:22:52;;;;;;;1.60;1.00;;;4.00;99.90;;;;;;5080521;28;20399;-82
2024/02/25 05:25:18;;;;;;;1.50;1.05;;;4.00;99.90;;;;;;5095099;28;20375;-80
2024/02/25 05:27:44;;;;;;;1.98;0.90;;;4.00;99.90;;;;;;5096397;28;20455;-81
2024/02/25 05:30:10;;;;;;;1.10;1.00;;;4.00;99.90;;;;;;5089104;28;20405;-82
2024/02/25 05:32:36;;;;;;;2.00;1.00;;;4.00;99.90;;;;;;5086776;28;20550;-83
2024/02/25 05:35:06;;;;;;;1.50;1.02;;;4.30;99.90;;;;;;5082944;28;20398;-82
2024/02/25 05:37:32;;;;;;;1.23;0.93;;;4.30;99.90;;;;;;5082898;28;20400;-82
2024/02/25 05:39:58;;;;;;;1.20;1.10;;;4.10;99.90;;;;;;5083004;28;20745;-82
2024/02/25 05:42:23;;;;;;;1.67;0.90;;;4.10;99.90;;;;;;5080360;28;20387;-82
2024/02/25 05:44:51;;;;;;;0.80;0.73;;;4.60;99.90;;;;;;5083422;28;20443;-82
2024/02/25 05:47:16;;;;;;;1.33;1.00;;;4.70;99.90;;;;;;5082890;28;20395;-82
2024/02/25 05:49:42;;;;;;;0.83;0.80;;;5.00;99.90;;;;;;5083170;28;20465;-82
2024/02/25 05:52:07;;;;;;;1.60;0.70;;;5.30;99.90;;;;;;5078280;28;20392;-82
2024/02/25 05:54:33;;;;;;;1.17;0.80;;;5.60;99.90;;;;;;5084755;28;20376;-81
2024/02/25 05:56:58;;;;;;;1.20;0.90;;;5.70;99.90;;;;;;5104853;28;20398;-82
2024/02/25 05:59:24;;;;;;;1.30;0.80;;;5.80;99.90;;;;;;5105123;28;20465;-82
2024/02/25 06:01:49;;;;;;;1.88;1.20;;;5.70;99.90;;;;;;5103946;28;20370;-82
2024/02/25 06:04:16;;;;;;;1.60;0.90;;;5.80;99.90;;;;;;5100859;28;20382;-80
2024/02/25 06:06:43;;;;;;;1.25;0.80;;;5.70;99.90;;;;;;5088733;28;20392;-82
2024/02/25 06:09:10;;;;;;;1.10;0.90;;;5.70;99.90;;;;;;5085144;28;20447;-81
2024/02/25 06:11:37;;;;;;;0.90;0.77;;;5.70;99.90;;;;;;5084551;28;20402;-82
2024/02/25 06:14:02;;;;;;;1.90;0.90;;;5.60;99.90;;;;;;5095172;28;20386;-82
2024/02/25 06:16:32;;;;;;;1.63;1.00;;;5.60;99.90;;;;;;5098450;28;20422;-82
2024/02/25 06:18:58;;;;;;;1.80;1.10;;;5.50;99.90;;;;;;5089346;28;20393;-82
2024/02/25 06:21:24;;;;;;;1.10;0.80;;;5.50;99.90;;;;;;5084832;28;20394;-82
2024/02/25 06:23:50;;;;;;;1.58;1.10;;;5.50;99.90;;;;;;5085922;28;20444;-82
2024/02/25 06:26:15;;;;;;;0.93;0.82;;;5.60;99.90;;;;;;5085640;28;20396;-82
2024/02/25 06:28:41;;;;;;;1.23;0.90;;;5.50;99.90;;;;;;5082688;28;20384;-82
2024/02/25 06:31:07;;;;;;;1.47;1.10;;;5.50;99.90;;;;;;5083559;28;20429;-82
2024/02/25 06:33:32;;;;;;;2.00;1.60;;;5.50;99.90;;;;;;5083352;28;20781;-83
2024/02/25 06:35:58;;;;;;;1.70;1.10;;;5.60;99.90;;;;;;5079130;28;20408;-82
2024/02/25 06:38:23;;;;;;;1.30;0.80;;;5.60;99.90;;;;;;5075631;28;20407;-83
2024/02/25 06:40:49;;;;;;;1.45;1.10;;;5.50;99.90;;;;;;5082982;28;20407;-82
2024/02/25 06:43:14;;;;;;;1.80;1.30;;;5.50;99.90;;;;;;5082796;28;20475;-82
2024/02/25 06:45:40;;;;;;;1.60;1.30;;;5.40;99.90;;;;;;5082236;28;20384;-82
2024/02/25 06:48:06;;;;;;;2.10;1.23;;;5.40;99.90;;;;;;5081451;28;20429;-82
2024/02/25 06:50:31;;;;;;;1.73;1.07;;;5.20;99.90;;;;;;5083334;28;20400;-82
2024/02/25 06:52:57;;;;;;;1.50;1.30;;;5.10;99.90;;;;;;5082215;28;20446;-82
2024/02/25 06:55:22;;;;;;;1.70;1.50;;;5.20;99.90;;;;;;5081056;28;20402;-82
2024/02/25 06:57:48;;;;;;;1.70;1.05;;;5.10;99.90;;;;;;5082716;28;20407;-82
2024/02/25 07:00:14;;;;;;;1.58;1.38;;;5.10;99.90;;;;;;5080861;28;20388;-83
2024/02/25 07:02:39;;;;;;;1.70;1.40;;;5.10;99.90;;;;;;5079005;28;20396;-82
2024/02/25 07:05:06;;;;;;;1.37;1.10;;;5.10;99.90;;;;;;5078558;28;20380;-81
2024/02/25 07:07:31;;;;;;;1.77;1.40;;;5.20;99.90;;;;;;5083405;28;20384;-82
2024/02/25 07:09:57;;;;;;;1.20;1.10;;;5.20;99.90;;;;;;5081057;28;20391;-82
2024/02/25 07:12:24;;;;;;;1.40;1.20;;;5.30;99.90;;;;;;5078844;28;20907;-82
2024/02/25 07:14:49;;;;;;;1.60;1.20;;;5.30;99.90;;;;;;5076054;28;20935;-82
2024/02/25 07:17:15;;;;;;;1.40;1.13;;;5.30;99.90;;;;;;5086963;28;20447;-80
2024/02/25 07:19:44;;;;;;;0.70;0.60;;;5.20;99.90;;;;;;5090398;28;20463;-82
2024/02/25 07:22:10;;;;;;;0.50;0.50;;;5.50;99.90;;;;;;5062046;28;20404;-82
2024/02/25 07:24:37;;;;;;;1.00;0.50;;;5.90;99.90;;;;;;5074455;28;20431;-81
2024/02/25 07:27:03;;;;;;;0.70;0.60;;;6.00;99.90;;;;;;5081545;28;20434;-80
2024/02/25 07:29:29;;;;;;;0.60;0.57;;;6.20;99.90;;;;;;5079938;28;20388;-82
2024/02/25 07:31:54;;;;;;;0.85;0.60;;;6.30;99.90;;;;;;5079132;28;20407;-81
2024/02/25 07:34:20;;;;;;;0.95;0.80;;;6.50;99.90;;;;;;5082663;28;20375;-81
2024/02/25 07:36:46;;;;;;;0.60;0.50;;;6.60;99.90;;;;;;5083355;28;20430;-81
2024/02/25 07:39:11;;;;;;;1.45;0.40;;;6.40;99.90;;;;;;5076818;28;20387;-82
2024/02/25 07:41:37;;;;;;;0.70;0.60;;;6.60;99.90;;;;;;5083408;28;20390;-82
2024/02/25 07:44:03;;;;;;;0.70;0.50;;;6.70;99.90;;;;;;5101779;28;20382;-82
2024/02/25 07:46:29;;;;;;;0.80;0.70;;;6.70;99.90;;;;;;5101337;28;20386;-82
2024/02/25 07:48:55;;;;;;;0.95;0.65;;;6.80;99.90;;;;;;5096176;28;20479;-82
2024/02/25 07:51:21;;;;;;;1.50;1.00;;;6.80;99.90;;;;;;5082351;28;20400;-82
2024/02/25 07:53:48;;;;;;;1.52;1.30;;;6.80;99.90;;;;;;5081421;28;20395;-82
2024/02/25 07:56:22;;;;;;;1.65;1.20;;;6.70;99.90;;;;;;5080707;28;20396;-82
2024/02/25 07:58:47;;;;;;;1.97;1.53;;;6.70;99.90;;;;;;5082458;22;20515;-78
2024/02/25 08:01:13;;;;;;;1.37;1.27;;;6.70;99.90;;;;;;5057388;28;20376;-78
2024/02/25 08:03:39;;;;;;;2.10;1.40;;;6.60;99.90;;;;;;5056096;28;20385;-78
2024/02/25 08:06:04;;;;;;;1.40;1.00;;;6.70;99.90;;;;;;5076492;28;20436;-77
2024/02/25 08:08:30;;;;;;;1.73;1.30;;;6.70;99.90;;;;;;5076680;28;20440;-77
2024/02/25 08:10:56;;;;;;;2.17;1.30;;;6.80;99.90;;;;;;5078112;28;20371;-78
2024/02/25 08:13:21;;;;;;;1.80;1.50;;;6.90;99.90;;;;;;5069886;28;20381;-78
2024/02/25 08:15:47;;;;;;;1.90;1.10;;;6.80;99.90;;;;;;5056966;28;20396;-78
2024/02/25 08:18:12;;;;;;;1.70;1.50;;;6.80;99.90;;;;;;5057294;28;20401;-78
2024/02/25 08:20:38;;;;;;;1.40;1.30;;;6.80;99.90;;;;;;5057781;28;20481;-78
2024/02/25 08:23:03;;;;;;;2.27;1.43;;;6.90;99.90;;;;;;5057393;28;20471;-78
2024/02/25 08:25:29;;;;;;;1.57;1.43;;;7.00;99.90;;;;;;5057004;28;20393;-78
2024/02/25 08:27:54;;;;;;;1.50;1.40;;;7.30;99.90;;;;;;5056053;28;20435;-78
2024/02/25 08:30:22;;;;;;;1.60;1.50;;;7.40;99.90;;;;;;5058200;28;20464;-78
2024/02/25 08:32:48;;;;;;;1.30;1.20;;;7.40;99.90;;;;;;5057402;28;20389;-80
2024/02/25 08:35:13;;;;;;;1.90;1.40;;;7.70;99.90;;;;;;5056521;28;20888;-79
2024/02/25 08:37:39;;;;;;;1.40;1.20;;;7.70;99.90;;;;;;5075200;28;20406;-78
2024/02/25 08:40:06;;;;;;;2.43;1.47;;;7.80;99.90;;;;;;5077286;28;20391;-78
2024/02/25 08:42:31;;;;;;;1.70;1.50;;;7.70;99.90;;;;;;5060030;28;20476;-79
2024/02/25 08:44:57;;;;;;;1.50;1.20;;;7.80;99.90;;;;;;5056283;28;20473;-78
2024/02/25 08:47:23;;;;;;;1.60;1.05;;;7.80;99.90;;;;;;5057131;28;20760;-79
2024/02/25 08:49:50;;;;;;;1.50;1.00;;;7.90;99.90;;;;;;5057561;28;20393;-79
2024/02/25 08:52:18;;;;;;;1.50;1.10;;;7.90;99.90;;;;;;5064467;28;20424;-79
2024/02/25 08:54:44;;;;;;;1.40;1.20;;;7.70;99.90;;;;;;5067800;28;20410;-79
2024/02/25 08:57:09;;;;;;;1.90;1.30;;;7.60;99.90;;;;;;5082619;28;20407;-79
2024/02/25 08:59:35;;;;;;;1.50;1.07;;;7.80;99.90;;;;;;5059230;28;20397;-79
2024/02/25 09:02:01;;;;;;;2.30;1.10;;;7.80;99.90;;;;;;5055404;28;20393;-79
2024/02/25 09:04:27;;;;;;;1.80;1.17;;;7.90;99.90;;;;;;5057160;28;20389;-79
2024/02/25 09:07:01;;;;;;;1.40;1.10;;;8.00;99.90;;;;;;5057762;28;20484;-77
2024/02/25 09:09:27;;;;;;;1.50;0.90;;;8.00;99.90;;;;;;5067558;28;20410;-77
2024/02/25 09:11:53;;;;;;;2.40;0.98;;;8.10;99.90;;;;;;5075628;28;20871;-77
2024/02/25 09:14:18;;;;;;;1.10;1.00;;;8.40;99.90;;;;;;5072459;28;20402;-77
2024/02/25 09:16:44;;;;;;;0.98;0.70;;;8.40;99.90;;;;;;5055009;28;20441;-77
2024/02/25 09:19:10;;;;;;;1.00;0.90;;;8.60;99.90;;;;;;5053358;28;20397;-77
2024/02/25 09:21:36;;;;;;;1.42;0.80;;;8.70;99.90;;;;;;5051943;28;20382;-77
2024/02/25 09:24:02;;;;;;;1.47;0.80;;;8.80;99.90;;;;;;5050872;28;20381;-80
2024/02/25 09:26:27;;;;;;;0.70;0.50;;;8.80;99.90;;;;;;5052491;28;20416;-79
2024/02/25 09:28:53;;;;;;;1.17;0.60;;;8.90;99.90;;;;;;5051263;28;20385;-77
2024/02/25 09:31:19;;;;;;;0.80;0.40;;;9.10;99.90;;;;;;5051539;28;20503;-79
2024/02/25 09:33:45;;;;;;;0.88;0.60;;;9.20;99.90;;;;;;5052024;28;20413;-79
2024/02/25 09:36:11;;;;;;;0.60;0.50;;;9.20;99.90;;;;;;5052930;28;20409;-79
2024/02/25 09:38:37;;;;;;;0.70;0.50;;;9.40;99.90;;;;;;5050030;28;20407;-78
2024/02/25 09:41:04;;;;;;;0.50;0.40;;;9.40;99.90;;;;;;5054305;28;20435;-79
2024/02/25 09:43:30;;;;;;;0.82;0.50;;;9.70;99.90;;;;;;5049092;28;20397;-79
2024/02/25 09:45:58;;;;;;;1.45;0.50;;;9.50;99.90;;;;;;5049595;28;20390;-79
2024/02/25 09:48:24;;;;;;;0.50;0.40;;;9.60;99.90;;;;;;5050733;28;20393;-77
2024/02/25 09:50:52;;;;;;;2.90;0.60;;;9.70;99.90;;;;;;5051129;28;20447;-78
2024/02/25 09:53:20;;;;;;;0.85;0.50;;;9.80;99.90;;;;;;5055913;28;20401;-78
2024/02/25 09:55:46;;;;;;;0.60;0.50;;;9.80;99.90;;;;;;5059362;28;20424;-79
2024/02/25 09:58:12;;;;;;;0.80;0.50;;;9.80;99.90;;;;;;5061291;28;20440;-78
2024/02/25 10:00:38;;;;;;;0.63;0.40;;;10.00;99.90;;;;;;5052827;28;21948;-78
2024/02/25 10:03:10;;;;;;;0.70;0.40;;;10.00;99.90;;;;;;5051578;28;20381;-78
2024/02/25 10:05:36;;;;;;;0.80;0.50;;;10.00;99.90;;;;;;5055254;28;20392;-78
2024/02/25 10:08:07;;;;;;;0.55;0.40;;;10.00;99.90;;;;;;5054073;28;20401;-78
2024/02/25 10:10:34;;;;;;;0.40;0.32;;;9.90;99.90;;;;;;5050046;28;20402;-78
2024/02/25 10:13:03;;;;;;;0.50;0.40;;;9.90;99.90;;;;;;5053352;28;20455;-79
2024/02/25 10:15:29;;;;;;;1.30;0.50;;;10.00;99.90;;;;;;5051593;28;20891;-78
2024/02/25 10:17:54;;;;;;;1.40;0.40;;;9.90;99.90;;;;;;5051258;28;20496;-78
2024/02/25 10:20:20;;;;;;;0.40;0.30;;;9.80;99.90;;;;;;5065674;28;20395;-78
2024/02/25 10:22:45;;;;;;;1.00;0.40;;;10.00;99.90;;;;;;5060523;28;20394;-78
2024/02/25 10:25:11;;;;;;;0.40;0.30;;;10.20;99.90;;;;;;5057383;28;20476;-78
2024/02/25 10:27:37;;;;;;;0.60;0.30;;;10.10;99.90;;;;;;5057747;28;20412;-78
2024/02/25 10:30:07;;;;;;;0.60;0.40;;;10.10;99.90;;;;;;5060455;28;20397;-78
2024/02/25 10:32:39;;;;;;;1.10;0.30;;;10.10;99.90;;;;;;5055327;28;20394;-78
2024/02/25 10:35:04;;;;;;;0.40;0.30;;;10.20;99.90;;;;;;5054145;28;20602;-78
2024/02/25 10:37:31;;;;;;;0.80;0.30;;;10.10;99.90;;;;;;5057415;28;20405;-78
2024/02/25 10:40:05;;;;;;;0.80;0.50;;;10.30;99.90;;;;;;5060119;28;20400;-77
2024/02/25 10:42:33;;;;;;;0.77;0.70;;;10.20;99.90;;;;;;5056967;28;20401;-78
2024/02/25 10:45:00;;;;;;;0.70;0.40;;;10.30;99.90;;;;;;5056336;28;20389;-78
2024/02/25 10:47:27;;;;;;;0.60;0.40;;;10.50;99.90;;;;;;5058943;28;20480;-79
2024/02/25 10:49:54;;;;;;;0.60;0.50;;;10.70;99.90;;;;;;5057559;28;20386;-78
2024/02/25 10:52:21;;;;;;;0.80;0.60;;;10.80;99.90;;;;;;5054883;28;20873;-78
2024/02/25 10:54:49;;;;;;;1.00;0.50;;;10.90;99.90;;;;;;5054891;28;20381;-78
2024/02/25 10:57:17;;;;;;;0.60;0.50;;;10.70;99.90;;;;;;5056672;28;20406;-78
2024/02/25 10:59:43;;;;;;;1.20;0.60;;;10.80;99.90;;;;;;5057283;28;20390;-78
2024/02/25 11:02:10;;;;;;;1.00;0.40;;;11.00;99.90;;;;;;5057516;28;20402;-78
2024/02/25 11:04:37;;;;;;;0.50;0.40;;;10.80;99.90;;;;;;5054295;28;20907;-77
2024/02/25 11:07:05;;;;;;;0.70;0.40;;;10.80;99.90;;;;;;5057779;28;20935;-79
2024/02/25 11:09:31;;;;;;;1.05;0.50;;;11.00;99.90;;;;;;5056918;28;20431;-78
2024/02/25 11:12:26;;;;;;;1.20;0.60;;;11.30;99.90;;;;;;5055937;28;20446;-78
2024/02/25 11:15:02;;;;;;;1.60;0.70;;;11.20;99.90;;;;;;5054808;28;20389;-78
2024/02/25 11:17:30;;;;;;;0.50;0.30;;;11.20;99.90;;;;;;5056215;28;20912;-78
2024/02/25 11:20:07;;;;;;;0.60;0.40;;;11.30;99.90;;;;;;5056406;28;20417;-79
2024/02/25 11:22:38;;;;;;;0.50;0.40;;;11.50;99.90;;;;;;5050962;28;20447;-79
2024/02/25 11:25:04;;;;;;;0.90;0.40;;;11.80;99.90;;;;;;5056405;28;20385;-79
2024/02/25 11:28:00;;;;;;;0.50;0.40;;;12.10;99.90;;;;;;5061948;28;20477;-78
2024/02/25 11:30:35;;;;;;;0.60;0.40;;;12.20;99.90;;;;;;5053134;28;20381;-79
2024/02/25 11:33:01;;;;;;;0.50;0.32;;;12.90;99.90;;;;;;5054322;28;20393;-78
2024/02/25 11:35:27;;;;;;;0.80;0.40;;;13.20;99.90;;;;;;5074454;28;20397;-77
2024/02/25 11:37:52;;;;;;;0.60;0.40;;;14.10;99.90;;;;;;5075323;28;20425;-78
2024/02/25 11:40:19;;;;;;;1.03;0.50;;;14.10;99.90;;;;;;5075985;28;20415;-77
2024/02/25 11:42:45;;;;;;;0.90;0.60;;;14.70;99.90;;;;;;5057203;28;20408;-78
2024/02/25 11:45:12;;;;;;;0.90;0.50;;;15.60;99.90;;;;;;5050502;28;20393;-78
2024/02/25 11:47:38;;;;;;;0.70;0.60;;;15.50;99.90;;;;;;5051623;28;20815;-78
2024/02/25 11:50:04;;;;;;;0.70;0.50;;;15.50;99.90;;;;;;5050692;28;20385;-78
2024/02/25 11:52:29;;;;;;;0.50;0.40;;;14.70;99.90;;;;;;5052868;28;20474;-78
2024/02/25 11:54:56;;;;;;;1.03;0.50;;;16.00;99.90;;;;;;5050553;28;20433;-78
2024/02/25 11:57:21;;;;;;;1.40;0.55;;;15.60;99.90;;;;;;5051133;28;22146;-79
2024/02/25 11:59:47;;;;;;;0.90;0.50;;;15.50;99.90;;;;;;5050341;28;20500;-79
2024/02/25 12:02:13;;;;;;;0.70;0.40;;;15.80;99.90;;;;;;5051292;28;20429;-79
2024/02/25 12:04:38;;;;;;;0.77;0.50;;;15.60;99.90;;;;;;5051318;28;20377;-79
2024/02/25 12:07:04;;;;;;;0.63;0.50;;;16.10;99.90;;;;;;5049831;28;20426;-79
2024/02/25 12:09:30;;;;;;;0.60;0.35;;;15.50;99.90;;;;;;5049543;28;20472;-79
2024/02/25 12:11:56;;;;;;;0.60;0.40;;;15.80;99.90;;;;;;5048739;28;20399;-79
2024/02/25 12:14:22;;;;;;;1.05;0.60;;;16.20;99.90;;;;;;5050134;28;20455;-79
2024/02/25 12:16:50;;;;;;;1.20;0.60;;;16.20;99.90;;;;;;5050273;28;20488;-79
2024/02/25 12:19:17;;;;;;;0.60;0.50;;;16.50;99.90;;;;;;5049152;28;20394;-79
2024/02/25 12:21:50;;;;;;;0.65;0.50;;;16.30;99.90;;;;;;5051386;28;20392;-79
2024/02/25 12:24:17;;;;;;;0.88;0.68;;;17.20;99.90;;;;;;5064062;28;20450;-78
2024/02/25 12:26:53;;;;;;;0.60;0.50;;;17.00;99.90;;;;;;5068164;28;20385;-79
2024/02/25 12:29:20;;;;;;;0.70;0.50;;;16.80;99.90;;;;;;5065518;28;20425;-79
2024/02/25 12:31:46;;;;;;;0.77;0.50;;;17.10;99.90;;;;;;5050593;28;20515;-79
2024/02/25 12:34:11;;;;;;;0.70;0.50;;;16.00;99.90;;;;;;5053177;28;20385;-80
2024/02/25 12:36:37;;;;;;;0.80;0.60;;;16.90;99.90;;;;;;5050693;28;20389;-79
2024/02/25 12:39:03;;;;;;;0.80;0.55;;;16.60;99.90;;;;;;5051890;28;20405;-79
2024/02/25 12:41:32;;;;;;;0.70;0.55;;;16.90;99.90;;;;;;5052967;28;20394;-80
2024/02/25 12:43:58;;;;;;;0.70;0.60;;;17.40;99.90;;;;;;5053558;28;20392;-79
2024/02/25 12:46:23;;;;;;;0.60;0.40;;;16.80;99.90;;;;;;5053562;28;20484;-80
2024/02/25 12:48:49;;;;;;;0.60;0.50;;;16.70;99.90;;;;;;5057094;28;20461;-79
2024/02/25 12:51:19;;;;;;;0.80;0.40;;;15.90;99.90;;;;;;5054432;28;20442;-78